Weather at Hong Kong International Airport

Public forecast

Using degrees Celsius for public forecast. Weather courtesy of forecast.io.

Current aviation weather report (METAR) for Hong Kong International Airport

Retrieved 2020/09/24 20:30 UTC (0 seconds ago):

VHHH 242030Z 02003KT 300V070 9999 FEW045 27/22 Q1009 NOSIG

Aviation forecast (TAF) for Hong Kong International Airport

Retrieved 2020/09/24 18:22 UTC (2 hours ago):

TAF VHHH 241700Z 2418/2524 03010KT 9999 FEW030 TX31/2506Z TN26/2422Z TN27/2522Z TEMPO 2503/2506 33010KT BECMG 2506/2508 09010KT TEMPO 2518/2524 4000 SHRA FEW010CB SCT025